sensor_id;sensor_type;location;lat;lon;timestamp;P1;durP1;ratioP1;P2;durP2;ratioP2
9398;SDS011;4739;49.334;8.792;2022-10-28T00:00:53;9.77;;;4.70;;
9398;SDS011;4739;49.334;8.792;2022-10-28T00:03:20;8.30;;;5.13;;
9398;SDS011;4739;49.334;8.792;2022-10-28T00:05:46;9.00;;;4.77;;
9398;SDS011;4739;49.334;8.792;2022-10-28T00:08:12;9.00;;;4.70;;
9398;SDS011;4739;49.334;8.792;2022-10-28T00:10:37;8.80;;;5.00;;
9398;SDS011;4739;49.334;8.792;2022-10-28T00:13:03;7.77;;;5.50;;
9398;SDS011;4739;49.334;8.792;2022-10-28T00:15:29;4.70;;;4.20;;
9398;SDS011;4739;49.334;8.792;2022-10-28T00:17:55;7.60;;;4.73;;
9398;SDS011;4739;49.334;8.792;2022-10-28T00:20:20;8.53;;;4.97;;
9398;SDS011;4739;49.334;8.792;2022-10-28T00:22:46;8.70;;;5.00;;
9398;SDS011;4739;49.334;8.792;2022-10-28T00:25:11;7.97;;;5.10;;
9398;SDS011;4739;49.334;8.792;2022-10-28T00:27:37;7.70;;;4.63;;
9398;SDS011;4739;49.334;8.792;2022-10-28T00:30:03;8.10;;;4.93;;
9398;SDS011;4739;49.334;8.792;2022-10-28T00:32:29;11.90;;;6.27;;
9398;SDS011;4739;49.334;8.792;2022-10-28T00:34:55;12.43;;;6.90;;
9398;SDS011;4739;49.334;8.792;2022-10-28T00:37:21;8.20;;;6.00;;
9398;SDS011;4739;49.334;8.792;2022-10-28T00:39:47;8.30;;;5.77;;
9398;SDS011;4739;49.334;8.792;2022-10-28T00:42:14;8.93;;;5.30;;
9398;SDS011;4739;49.334;8.792;2022-10-28T00:47:23;8.07;;;4.63;;
9398;SDS011;4739;49.334;8.792;2022-10-28T00:53:06;6.83;;;5.90;;
9398;SDS011;4739;49.334;8.792;2022-10-28T00:55:53;7.10;;;6.10;;
9398;SDS011;4739;49.334;8.792;2022-10-28T00:58:21;12.13;;;6.07;;
9398;SDS011;4739;49.334;8.792;2022-10-28T01:00:49;7.83;;;5.33;;
9398;SDS011;4739;49.334;8.792;2022-10-28T01:03:15;9.47;;;5.17;;
9398;SDS011;4739;49.334;8.792;2022-10-28T01:05:41;8.43;;;4.90;;
9398;SDS011;4739;49.334;8.792;2022-10-28T01:08:10;8.47;;;4.77;;
9398;SDS011;4739;49.334;8.792;2022-10-28T01:13:28;8.67;;;5.17;;
9398;SDS011;4739;49.334;8.792;2022-10-28T01:19:37;8.20;;;5.20;;
9398;SDS011;4739;49.334;8.792;2022-10-28T01:30:25;5.10;;;4.60;;
9398;SDS011;4739;49.334;8.792;2022-10-28T01:35:56;6.40;;;4.50;;
9398;SDS011;4739;49.334;8.792;2022-10-28T01:39:06;6.27;;;4.17;;
9398;SDS011;4739;49.334;8.792;2022-10-28T01:48:00;7.23;;;4.33;;
9398;SDS011;4739;49.334;8.792;2022-10-28T01:53:20;4.27;;;3.70;;
9398;SDS011;4739;49.334;8.792;2022-10-28T01:55:49;7.60;;;3.90;;
9398;SDS011;4739;49.334;8.792;2022-10-28T01:58:18;5.00;;;3.97;;
9398;SDS011;4739;49.334;8.792;2022-10-28T02:00:49;5.83;;;3.90;;
9398;SDS011;4739;49.334;8.792;2022-10-28T02:03:15;6.90;;;3.43;;
9398;SDS011;4739;49.334;8.792;2022-10-28T02:05:45;7.43;;;3.80;;
9398;SDS011;4739;49.334;8.792;2022-10-28T02:13:15;10.40;;;4.50;;
9398;SDS011;4739;49.334;8.792;2022-10-28T02:16:05;6.63;;;3.97;;
9398;SDS011;4739;49.334;8.792;2022-10-28T02:21:46;8.73;;;4.27;;
9398;SDS011;4739;49.334;8.792;2022-10-28T02:27:17;7.80;;;4.20;;
9398;SDS011;4739;49.334;8.792;2022-10-28T02:29:57;8.27;;;4.10;;
9398;SDS011;4739;49.334;8.792;2022-10-28T02:32:33;9.87;;;3.90;;
9398;SDS011;4739;49.334;8.792;2022-10-28T02:35:02;6.07;;;4.23;;
9398;SDS011;4739;49.334;8.792;2022-10-28T02:37:33;9.47;;;4.40;;
9398;SDS011;4739;49.334;8.792;2022-10-28T02:40:03;7.33;;;4.47;;
9398;SDS011;4739;49.334;8.792;2022-10-28T02:42:34;8.87;;;4.03;;
9398;SDS011;4739;49.334;8.792;2022-10-28T02:45:07;5.70;;;4.13;;
9398;SDS011;4739;49.334;8.792;2022-10-28T02:47:40;7.63;;;4.03;;
9398;SDS011;4739;49.334;8.792;2022-10-28T02:50:13;9.87;;;4.80;;
9398;SDS011;4739;49.334;8.792;2022-10-28T02:52:43;5.70;;;4.40;;
9398;SDS011;4739;49.334;8.792;2022-10-28T02:55:12;7.00;;;4.40;;
9398;SDS011;4739;49.334;8.792;2022-10-28T02:57:43;11.60;;;4.80;;
9398;SDS011;4739;49.334;8.792;2022-10-28T03:00:19;8.63;;;4.70;;
9398;SDS011;4739;49.334;8.792;2022-10-28T03:02:48;10.07;;;4.73;;
9398;SDS011;4739;49.334;8.792;2022-10-28T03:05:14;5.57;;;4.20;;
9398;SDS011;4739;49.334;8.792;2022-10-28T03:07:39;10.43;;;4.90;;
9398;SDS011;4739;49.334;8.792;2022-10-28T03:10:05;6.60;;;4.20;;
9398;SDS011;4739;49.334;8.792;2022-10-28T03:12:31;10.00;;;4.40;;
9398;SDS011;4739;49.334;8.792;2022-10-28T03:14:57;7.23;;;4.40;;
9398;SDS011;4739;49.334;8.792;2022-10-28T03:17:22;6.10;;;4.30;;
9398;SDS011;4739;49.334;8.792;2022-10-28T03:19:48;6.30;;;3.60;;
9398;SDS011;4739;49.334;8.792;2022-10-28T03:22:13;5.70;;;3.73;;
9398;SDS011;4739;49.334;8.792;2022-10-28T03:24:39;7.10;;;3.93;;
9398;SDS011;4739;49.334;8.792;2022-10-28T03:27:05;5.17;;;4.20;;
9398;SDS011;4739;49.334;8.792;2022-10-28T03:29:30;7.07;;;4.03;;
9398;SDS011;4739;49.334;8.792;2022-10-28T03:31:56;7.00;;;4.50;;
9398;SDS011;4739;49.334;8.792;2022-10-28T03:34:21;8.70;;;4.00;;
9398;SDS011;4739;49.334;8.792;2022-10-28T03:36:47;8.73;;;4.90;;
9398;SDS011;4739;49.334;8.792;2022-10-28T03:39:13;9.20;;;4.67;;
9398;SDS011;4739;49.334;8.792;2022-10-28T03:41:38;8.23;;;4.97;;
9398;SDS011;4739;49.334;8.792;2022-10-28T03:44:04;7.77;;;4.90;;
9398;SDS011;4739;49.334;8.792;2022-10-28T03:46:30;7.50;;;4.60;;
9398;SDS011;4739;49.334;8.792;2022-10-28T03:48:56;12.73;;;4.87;;
9398;SDS011;4739;49.334;8.792;2022-10-28T03:51:21;5.83;;;4.10;;
9398;SDS011;4739;49.334;8.792;2022-10-28T03:53:47;5.13;;;4.20;;
9398;SDS011;4739;49.334;8.792;2022-10-28T03:56:12;9.37;;;4.60;;
9398;SDS011;4739;49.334;8.792;2022-10-28T03:58:38;7.03;;;4.17;;
9398;SDS011;4739;49.334;8.792;2022-10-28T04:01:03;11.23;;;5.03;;
9398;SDS011;4739;49.334;8.792;2022-10-28T04:03:29;8.10;;;4.30;;
9398;SDS011;4739;49.334;8.792;2022-10-28T04:05:55;7.40;;;4.47;;
9398;SDS011;4739;49.334;8.792;2022-10-28T04:08:20;9.17;;;4.80;;
9398;SDS011;4739;49.334;8.792;2022-10-28T04:10:46;10.53;;;4.50;;
9398;SDS011;4739;49.334;8.792;2022-10-28T04:13:12;8.60;;;5.10;;
9398;SDS011;4739;49.334;8.792;2022-10-28T04:15:38;9.77;;;4.60;;
9398;SDS011;4739;49.334;8.792;2022-10-28T04:18:04;7.60;;;4.47;;
9398;SDS011;4739;49.334;8.792;2022-10-28T04:20:30;8.93;;;4.93;;
9398;SDS011;4739;49.334;8.792;2022-10-28T04:22:56;11.80;;;4.93;;
9398;SDS011;4739;49.334;8.792;2022-10-28T04:25:22;10.07;;;4.63;;
9398;SDS011;4739;49.334;8.792;2022-10-28T04:27:49;9.50;;;5.10;;
9398;SDS011;4739;49.334;8.792;2022-10-28T04:30:15;9.73;;;4.17;;
9398;SDS011;4739;49.334;8.792;2022-10-28T04:32:41;9.10;;;4.57;;
9398;SDS011;4739;49.334;8.792;2022-10-28T04:35:08;7.53;;;4.27;;
9398;SDS011;4739;49.334;8.792;2022-10-28T04:37:35;10.17;;;5.67;;
9398;SDS011;4739;49.334;8.792;2022-10-28T04:40:01;8.30;;;5.23;;
9398;SDS011;4739;49.334;8.792;2022-10-28T04:42:27;9.50;;;4.97;;
9398;SDS011;4739;49.334;8.792;2022-10-28T04:44:53;8.90;;;4.50;;
9398;SDS011;4739;49.334;8.792;2022-10-28T04:47:18;7.57;;;4.73;;
9398;SDS011;4739;49.334;8.792;2022-10-28T04:49:44;7.07;;;4.80;;
9398;SDS011;4739;49.334;8.792;2022-10-28T04:52:10;7.20;;;4.73;;
9398;SDS011;4739;49.334;8.792;2022-10-28T04:54:36;7.90;;;4.93;;
9398;SDS011;4739;49.334;8.792;2022-10-28T04:57:01;8.37;;;5.47;;
9398;SDS011;4739;49.334;8.792;2022-10-28T04:59:27;6.53;;;5.93;;
9398;SDS011;4739;49.334;8.792;2022-10-28T05:01:53;8.60;;;5.80;;
9398;SDS011;4739;49.334;8.792;2022-10-28T05:04:18;8.87;;;5.37;;
9398;SDS011;4739;49.334;8.792;2022-10-28T05:06:44;8.80;;;5.03;;
9398;SDS011;4739;49.334;8.792;2022-10-28T05:09:10;8.90;;;4.60;;
9398;SDS011;4739;49.334;8.792;2022-10-28T05:11:35;9.20;;;4.77;;
9398;SDS011;4739;49.334;8.792;2022-10-28T05:14:01;10.60;;;4.47;;
9398;SDS011;4739;49.334;8.792;2022-10-28T05:16:27;7.83;;;4.17;;
9398;SDS011;4739;49.334;8.792;2022-10-28T05:18:52;6.50;;;4.27;;
9398;SDS011;4739;49.334;8.792;2022-10-28T05:21:18;8.53;;;4.50;;
9398;SDS011;4739;49.334;8.792;2022-10-28T05:23:44;8.40;;;4.60;;
9398;SDS011;4739;49.334;8.792;2022-10-28T05:26:11;6.60;;;4.23;;
9398;SDS011;4739;49.334;8.792;2022-10-28T05:28:36;8.87;;;5.13;;
9398;SDS011;4739;49.334;8.792;2022-10-28T05:31:02;8.63;;;4.83;;
9398;SDS011;4739;49.334;8.792;2022-10-28T05:33:28;6.03;;;4.33;;
9398;SDS011;4739;49.334;8.792;2022-10-28T05:35:54;7.30;;;4.33;;
9398;SDS011;4739;49.334;8.792;2022-10-28T05:38:19;5.83;;;4.23;;
9398;SDS011;4739;49.334;8.792;2022-10-28T05:40:45;8.27;;;4.50;;
9398;SDS011;4739;49.334;8.792;2022-10-28T05:43:10;6.57;;;4.30;;
9398;SDS011;4739;49.334;8.792;2022-10-28T05:45:36;7.87;;;4.93;;
9398;SDS011;4739;49.334;8.792;2022-10-28T05:48:02;10.53;;;4.60;;
9398;SDS011;4739;49.334;8.792;2022-10-28T05:50:27;8.23;;;4.47;;
9398;SDS011;4739;49.334;8.792;2022-10-28T05:52:53;9.93;;;4.57;;
9398;SDS011;4739;49.334;8.792;2022-10-28T05:55:21;6.90;;;4.10;;
9398;SDS011;4739;49.334;8.792;2022-10-28T05:57:49;9.03;;;4.33;;
9398;SDS011;4739;49.334;8.792;2022-10-28T06:00:16;10.17;;;5.40;;
9398;SDS011;4739;49.334;8.792;2022-10-28T06:02:43;6.83;;;4.17;;
9398;SDS011;4739;49.334;8.792;2022-10-28T06:05:10;8.80;;;4.43;;
9398;SDS011;4739;49.334;8.792;2022-10-28T06:07:37;7.03;;;4.03;;
9398;SDS011;4739;49.334;8.792;2022-10-28T06:10:04;5.67;;;4.17;;
9398;SDS011;4739;49.334;8.792;2022-10-28T06:12:31;7.07;;;4.27;;
9398;SDS011;4739;49.334;8.792;2022-10-28T06:14:56;6.93;;;4.43;;
9398;SDS011;4739;49.334;8.792;2022-10-28T06:17:22;9.70;;;5.70;;
9398;SDS011;4739;49.334;8.792;2022-10-28T06:19:48;6.60;;;4.70;;
9398;SDS011;4739;49.334;8.792;2022-10-28T06:22:13;10.07;;;4.87;;
9398;SDS011;4739;49.334;8.792;2022-10-28T06:24:39;12.27;;;5.57;;
9398;SDS011;4739;49.334;8.792;2022-10-28T06:27:04;9.57;;;5.63;;
9398;SDS011;4739;49.334;8.792;2022-10-28T06:29:31;7.87;;;4.60;;
9398;SDS011;4739;49.334;8.792;2022-10-28T06:31:57;7.33;;;5.03;;
9398;SDS011;4739;49.334;8.792;2022-10-28T06:34:22;7.10;;;4.97;;
9398;SDS011;4739;49.334;8.792;2022-10-28T06:36:48;9.10;;;5.17;;
9398;SDS011;4739;49.334;8.792;2022-10-28T06:39:14;8.67;;;5.27;;
9398;SDS011;4739;49.334;8.792;2022-10-28T06:41:39;6.53;;;4.97;;
9398;SDS011;4739;49.334;8.792;2022-10-28T06:44:05;7.03;;;4.77;;
9398;SDS011;4739;49.334;8.792;2022-10-28T06:46:31;8.30;;;4.50;;
9398;SDS011;4739;49.334;8.792;2022-10-28T06:48:57;7.67;;;4.97;;
9398;SDS011;4739;49.334;8.792;2022-10-28T06:51:22;8.27;;;4.90;;
9398;SDS011;4739;49.334;8.792;2022-10-28T06:53:49;7.17;;;4.40;;
9398;SDS011;4739;49.334;8.792;2022-10-28T06:56:15;9.13;;;4.70;;
9398;SDS011;4739;49.334;8.792;2022-10-28T06:58:41;11.57;;;4.43;;
9398;SDS011;4739;49.334;8.792;2022-10-28T07:01:06;7.77;;;4.07;;
9398;SDS011;4739;49.334;8.792;2022-10-28T07:03:32;9.23;;;4.37;;
9398;SDS011;4739;49.334;8.792;2022-10-28T07:05:58;7.90;;;5.17;;
9398;SDS011;4739;49.334;8.792;2022-10-28T07:08:25;7.50;;;4.60;;
9398;SDS011;4739;49.334;8.792;2022-10-28T07:10:54;9.80;;;4.90;;
9398;SDS011;4739;49.334;8.792;2022-10-28T07:13:21;11.00;;;4.40;;
9398;SDS011;4739;49.334;8.792;2022-10-28T07:15:51;6.90;;;5.00;;
9398;SDS011;4739;49.334;8.792;2022-10-28T07:18:17;9.00;;;5.23;;
9398;SDS011;4739;49.334;8.792;2022-10-28T07:20:43;8.67;;;4.43;;
9398;SDS011;4739;49.334;8.792;2022-10-28T07:23:08;13.77;;;4.83;;
9398;SDS011;4739;49.334;8.792;2022-10-28T07:25:34;8.77;;;4.37;;
9398;SDS011;4739;49.334;8.792;2022-10-28T07:27:59;7.90;;;4.67;;
9398;SDS011;4739;49.334;8.792;2022-10-28T07:30:26;8.53;;;4.90;;
9398;SDS011;4739;49.334;8.792;2022-10-28T07:32:52;10.20;;;4.47;;
9398;SDS011;4739;49.334;8.792;2022-10-28T07:35:18;7.97;;;5.23;;
9398;SDS011;4739;49.334;8.792;2022-10-28T07:37:44;9.47;;;5.97;;
9398;SDS011;4739;49.334;8.792;2022-10-28T07:40:10;10.47;;;7.10;;
9398;SDS011;4739;49.334;8.792;2022-10-28T07:42:36;12.40;;;7.73;;
9398;SDS011;4739;49.334;8.792;2022-10-28T07:45:02;9.73;;;7.40;;
9398;SDS011;4739;49.334;8.792;2022-10-28T07:47:28;9.93;;;6.47;;
9398;SDS011;4739;49.334;8.792;2022-10-28T07:49:54;9.83;;;7.03;;
9398;SDS011;4739;49.334;8.792;2022-10-28T07:52:20;11.37;;;6.50;;
9398;SDS011;4739;49.334;8.792;2022-10-28T07:54:46;11.77;;;6.90;;
9398;SDS011;4739;49.334;8.792;2022-10-28T07:57:11;9.97;;;5.93;;
9398;SDS011;4739;49.334;8.792;2022-10-28T07:59:37;12.03;;;6.10;;
9398;SDS011;4739;49.334;8.792;2022-10-28T08:02:03;12.97;;;6.20;;
9398;SDS011;4739;49.334;8.792;2022-10-28T08:04:30;11.13;;;6.33;;
9398;SDS011;4739;49.334;8.792;2022-10-28T08:06:56;9.17;;;5.20;;
9398;SDS011;4739;49.334;8.792;2022-10-28T08:09:22;7.80;;;5.20;;
9398;SDS011;4739;49.334;8.792;2022-10-28T08:11:47;10.63;;;6.27;;
9398;SDS011;4739;49.334;8.792;2022-10-28T08:14:13;10.30;;;7.00;;
9398;SDS011;4739;49.334;8.792;2022-10-28T08:16:39;16.60;;;6.70;;
9398;SDS011;4739;49.334;8.792;2022-10-28T08:19:04;9.20;;;5.57;;
9398;SDS011;4739;49.334;8.792;2022-10-28T08:21:30;9.00;;;5.50;;
9398;SDS011;4739;49.334;8.792;2022-10-28T08:23:55;11.60;;;5.60;;
9398;SDS011;4739;49.334;8.792;2022-10-28T08:26:21;7.97;;;4.80;;
9398;SDS011;4739;49.334;8.792;2022-10-28T08:28:47;7.60;;;4.70;;
9398;SDS011;4739;49.334;8.792;2022-10-28T08:31:13;12.30;;;5.23;;
9398;SDS011;4739;49.334;8.792;2022-10-28T08:33:39;9.97;;;4.87;;
9398;SDS011;4739;49.334;8.792;2022-10-28T08:36:12;11.23;;;7.17;;
9398;SDS011;4739;49.334;8.792;2022-10-28T08:38:41;10.33;;;5.50;;
9398;SDS011;4739;49.334;8.792;2022-10-28T08:47:15;11.77;;;4.73;;
9398;SDS011;4739;49.334;8.792;2022-10-28T08:49:44;9.80;;;4.47;;
9398;SDS011;4739;49.334;8.792;2022-10-28T08:52:15;17.33;;;12.60;;
9398;SDS011;4739;49.334;8.792;2022-10-28T08:55:00;14.40;;;7.03;;
9398;SDS011;4739;49.334;8.792;2022-10-28T08:57:36;12.90;;;8.87;;
9398;SDS011;4739;49.334;8.792;2022-10-28T09:00:16;10.20;;;8.10;;
9398;SDS011;4739;49.334;8.792;2022-10-28T09:05:35;14.93;;;11.90;;
9398;SDS011;4739;49.334;8.792;2022-10-28T09:08:01;10.27;;;8.30;;
9398;SDS011;4739;49.334;8.792;2022-10-28T09:13:16;10.13;;;6.17;;
9398;SDS011;4739;49.334;8.792;2022-10-28T09:18:55;8.87;;;6.57;;
9398;SDS011;4739;49.334;8.792;2022-10-28T09:21:24;9.73;;;5.43;;
9398;SDS011;4739;49.334;8.792;2022-10-28T09:23:55;7.70;;;5.50;;
9398;SDS011;4739;49.334;8.792;2022-10-28T09:29:16;8.30;;;5.57;;
9398;SDS011;4739;49.334;8.792;2022-10-28T09:34:43;11.77;;;5.70;;
9398;SDS011;4739;49.334;8.792;2022-10-28T09:37:16;14.63;;;6.30;;
9398;SDS011;4739;49.334;8.792;2022-10-28T09:40:21;13.90;;;5.67;;
9398;SDS011;4739;49.334;8.792;2022-10-28T09:45:39;15.30;;;5.70;;
9398;SDS011;4739;49.334;8.792;2022-10-28T09:48:13;25.23;;;6.00;;
9398;SDS011;4739;49.334;8.792;2022-10-28T09:50:43;7.90;;;5.10;;
9398;SDS011;4739;49.334;8.792;2022-10-28T09:55:48;8.83;;;4.27;;
9398;SDS011;4739;49.334;8.792;2022-10-28T09:58:14;7.47;;;4.20;;
9398;SDS011;4739;49.334;8.792;2022-10-28T10:00:42;7.43;;;5.10;;
9398;SDS011;4739;49.334;8.792;2022-10-28T10:03:08;8.83;;;4.60;;
9398;SDS011;4739;49.334;8.792;2022-10-28T10:05:37;9.43;;;4.77;;
9398;SDS011;4739;49.334;8.792;2022-10-28T10:08:14;7.87;;;4.97;;
9398;SDS011;4739;49.334;8.792;2022-10-28T10:13:13;16.03;;;4.80;;
9398;SDS011;4739;49.334;8.792;2022-10-28T10:15:43;11.87;;;4.40;;
9398;SDS011;4739;49.334;8.792;2022-10-28T10:18:17;10.03;;;4.57;;
9398;SDS011;4739;49.334;8.792;2022-10-28T10:23:21;9.73;;;4.00;;
9398;SDS011;4739;49.334;8.792;2022-10-28T10:25:48;8.30;;;4.27;;
9398;SDS011;4739;49.334;8.792;2022-10-28T10:28:19;11.27;;;4.07;;
9398;SDS011;4739;49.334;8.792;2022-10-28T10:30:49;8.60;;;3.97;;
9398;SDS011;4739;49.334;8.792;2022-10-28T10:33:18;7.90;;;4.13;;
9398;SDS011;4739;49.334;8.792;2022-10-28T10:35:52;10.10;;;3.90;;
9398;SDS011;4739;49.334;8.792;2022-10-28T10:38:20;7.53;;;4.30;;
9398;SDS011;4739;49.334;8.792;2022-10-28T10:40:47;7.53;;;4.10;;
9398;SDS011;4739;49.334;8.792;2022-10-28T10:45:52;8.27;;;4.40;;
9398;SDS011;4739;49.334;8.792;2022-10-28T10:48:23;6.97;;;3.87;;
9398;SDS011;4739;49.334;8.792;2022-10-28T10:50:49;10.70;;;5.47;;
9398;SDS011;4739;49.334;8.792;2022-10-28T10:53:20;9.63;;;6.20;;
9398;SDS011;4739;49.334;8.792;2022-10-28T10:55:56;8.00;;;5.00;;
9398;SDS011;4739;49.334;8.792;2022-10-28T10:58:26;7.53;;;4.60;;
9398;SDS011;4739;49.334;8.792;2022-10-28T11:00:57;7.67;;;4.53;;
9398;SDS011;4739;49.334;8.792;2022-10-28T11:06:00;8.97;;;4.47;;
9398;SDS011;4739;49.334;8.792;2022-10-28T11:11:19;9.20;;;4.93;;
9398;SDS011;4739;49.334;8.792;2022-10-28T11:13:45;6.53;;;4.63;;
9398;SDS011;4739;49.334;8.792;2022-10-28T11:16:16;9.73;;;4.73;;
9398;SDS011;4739;49.334;8.792;2022-10-28T11:18:47;11.43;;;4.60;;
9398;SDS011;4739;49.334;8.792;2022-10-28T11:29:21;7.00;;;3.87;;
9398;SDS011;4739;49.334;8.792;2022-10-28T11:37:28;7.40;;;4.37;;
9398;SDS011;4739;49.334;8.792;2022-10-28T11:57:10;6.50;;;3.83;;
9398;SDS011;4739;49.334;8.792;2022-10-28T12:05:35;6.00;;;3.40;;
9398;SDS011;4739;49.334;8.792;2022-10-28T12:13:56;10.03;;;4.30;;
9398;SDS011;4739;49.334;8.792;2022-10-28T12:16:42;7.68;;;3.33;;
9398;SDS011;4739;49.334;8.792;2022-10-28T12:19:12;8.68;;;3.20;;
9398;SDS011;4739;49.334;8.792;2022-10-28T12:22:20;8.53;;;3.30;;
9398;SDS011;4739;49.334;8.792;2022-10-28T12:24:53;11.30;;;3.85;;
9398;SDS011;4739;49.334;8.792;2022-10-28T12:27:23;9.18;;;3.72;;
9398;SDS011;4739;49.334;8.792;2022-10-28T12:30:14;6.80;;;3.20;;
9398;SDS011;4739;49.334;8.792;2022-10-28T12:32:56;9.40;;;3.45;;
9398;SDS011;4739;49.334;8.792;2022-10-28T12:35:35;7.77;;;3.40;;
9398;SDS011;4739;49.334;8.792;2022-10-28T12:38:11;11.25;;;3.17;;
9398;SDS011;4739;49.334;8.792;2022-10-28T12:40:45;7.32;;;3.25;;
9398;SDS011;4739;49.334;8.792;2022-10-28T12:43:25;13.52;;;3.35;;
9398;SDS011;4739;49.334;8.792;2022-10-28T12:46:03;8.57;;;3.65;;
9398;SDS011;4739;49.334;8.792;2022-10-28T12:48:32;10.20;;;3.30;;
9398;SDS011;4739;49.334;8.792;2022-10-28T12:51:16;10.23;;;3.25;;
9398;SDS011;4739;49.334;8.792;2022-10-28T12:54:04;13.48;;;3.28;;
9398;SDS011;4739;49.334;8.792;2022-10-28T12:59:52;7.80;;;3.15;;
9398;SDS011;4739;49.334;8.792;2022-10-28T13:02:29;8.93;;;3.40;;
9398;SDS011;4739;49.334;8.792;2022-10-28T13:05:04;7.75;;;3.20;;
9398;SDS011;4739;49.334;8.792;2022-10-28T13:08:06;11.80;;;3.33;;
9398;SDS011;4739;49.334;8.792;2022-10-28T13:10:42;7.95;;;3.20;;
9398;SDS011;4739;49.334;8.792;2022-10-28T13:16:04;8.68;;;3.20;;
9398;SDS011;4739;49.334;8.792;2022-10-28T13:18:52;9.00;;;3.25;;
9398;SDS011;4739;49.334;8.792;2022-10-28T13:21:30;8.15;;;2.90;;
9398;SDS011;4739;49.334;8.792;2022-10-28T13:24:35;10.05;;;2.70;;
9398;SDS011;4739;49.334;8.792;2022-10-28T13:27:19;10.10;;;3.25;;
9398;SDS011;4739;49.334;8.792;2022-10-28T13:29:48;8.85;;;3.72;;
9398;SDS011;4739;49.334;8.792;2022-10-28T13:34:59;7.28;;;3.60;;
9398;SDS011;4739;49.334;8.792;2022-10-28T13:37:32;9.88;;;3.75;;
9398;SDS011;4739;49.334;8.792;2022-10-28T13:39:59;7.45;;;3.30;;
9398;SDS011;4739;49.334;8.792;2022-10-28T13:44:55;5.85;;;2.92;;
9398;SDS011;4739;49.334;8.792;2022-10-28T13:47:31;7.65;;;3.17;;
9398;SDS011;4739;49.334;8.792;2022-10-28T13:52:33;7.43;;;3.03;;
9398;SDS011;4739;49.334;8.792;2022-10-28T13:58:04;7.28;;;2.80;;
9398;SDS011;4739;49.334;8.792;2022-10-28T14:00:42;11.60;;;3.47;;
9398;SDS011;4739;49.334;8.792;2022-10-28T14:03:15;11.20;;;3.15;;
9398;SDS011;4739;49.334;8.792;2022-10-28T14:08:07;9.85;;;3.40;;
9398;SDS011;4739;49.334;8.792;2022-10-28T14:11:02;9.80;;;3.67;;
9398;SDS011;4739;49.334;8.792;2022-10-28T14:13:36;10.82;;;5.55;;
9398;SDS011;4739;49.334;8.792;2022-10-28T14:18:55;10.02;;;3.63;;
9398;SDS011;4739;49.334;8.792;2022-10-28T14:40:32;8.30;;;3.50;;
9398;SDS011;4739;49.334;8.792;2022-10-28T14:49:28;13.63;;;3.63;;
9398;SDS011;4739;49.334;8.792;2022-10-28T14:51:55;7.77;;;3.07;;
9398;SDS011;4739;49.334;8.792;2022-10-28T14:57:26;7.67;;;3.70;;
9398;SDS011;4739;49.334;8.792;2022-10-28T14:59:53;8.55;;;3.92;;
9398;SDS011;4739;49.334;8.792;2022-10-28T15:02:20;10.35;;;3.53;;
9398;SDS011;4739;49.334;8.792;2022-10-28T15:04:56;10.67;;;3.70;;
9398;SDS011;4739;49.334;8.792;2022-10-28T15:07:23;11.17;;;3.73;;
9398;SDS011;4739;49.334;8.792;2022-10-28T15:09:49;9.55;;;3.25;;
9398;SDS011;4739;49.334;8.792;2022-10-28T15:12:17;9.13;;;4.20;;
9398;SDS011;4739;49.334;8.792;2022-10-28T15:14:46;8.38;;;3.83;;
9398;SDS011;4739;49.334;8.792;2022-10-28T15:19:52;8.70;;;3.40;;
9398;SDS011;4739;49.334;8.792;2022-10-28T15:22:22;11.60;;;4.00;;
9398;SDS011;4739;49.334;8.792;2022-10-28T15:27:26;10.90;;;3.80;;
9398;SDS011;4739;49.334;8.792;2022-10-28T15:30:03;16.40;;;4.93;;
9398;SDS011;4739;49.334;8.792;2022-10-28T15:32:52;9.80;;;5.50;;
9398;SDS011;4739;49.334;8.792;2022-10-28T15:35:38;11.93;;;4.57;;
9398;SDS011;4739;49.334;8.792;2022-10-28T15:40:50;11.20;;;4.23;;
9398;SDS011;4739;49.334;8.792;2022-10-28T15:43:16;11.87;;;3.73;;
9398;SDS011;4739;49.334;8.792;2022-10-28T15:45:52;9.07;;;4.43;;
9398;SDS011;4739;49.334;8.792;2022-10-28T15:48:21;9.90;;;3.50;;
9398;SDS011;4739;49.334;8.792;2022-10-28T15:53:48;10.80;;;3.70;;
9398;SDS011;4739;49.334;8.792;2022-10-28T15:58:59;12.00;;;4.17;;
9398;SDS011;4739;49.334;8.792;2022-10-28T16:01:41;10.43;;;4.20;;
9398;SDS011;4739;49.334;8.792;2022-10-28T16:06:48;11.87;;;4.13;;
9398;SDS011;4739;49.334;8.792;2022-10-28T16:11:54;10.63;;;3.33;;
9398;SDS011;4739;49.334;8.792;2022-10-28T16:16:53;7.30;;;3.90;;
9398;SDS011;4739;49.334;8.792;2022-10-28T16:21:57;11.13;;;3.90;;
9398;SDS011;4739;49.334;8.792;2022-10-28T16:24:23;10.20;;;3.83;;
9398;SDS011;4739;49.334;8.792;2022-10-28T16:26:48;12.47;;;3.83;;
9398;SDS011;4739;49.334;8.792;2022-10-28T16:29:14;7.87;;;3.27;;
9398;SDS011;4739;49.334;8.792;2022-10-28T16:31:39;6.70;;;3.77;;
9398;SDS011;4739;49.334;8.792;2022-10-28T16:34:07;9.33;;;4.20;;
9398;SDS011;4739;49.334;8.792;2022-10-28T16:36:37;9.90;;;4.00;;
9398;SDS011;4739;49.334;8.792;2022-10-28T16:39:04;9.53;;;4.20;;
9398;SDS011;4739;49.334;8.792;2022-10-28T16:41:35;11.17;;;3.87;;
9398;SDS011;4739;49.334;8.792;2022-10-28T16:44:01;8.13;;;3.67;;
9398;SDS011;4739;49.334;8.792;2022-10-28T16:46:26;8.30;;;3.80;;
9398;SDS011;4739;49.334;8.792;2022-10-28T16:48:52;8.27;;;3.30;;
9398;SDS011;4739;49.334;8.792;2022-10-28T16:51:17;10.37;;;3.33;;
9398;SDS011;4739;49.334;8.792;2022-10-28T16:53:43;6.63;;;3.53;;
9398;SDS011;4739;49.334;8.792;2022-10-28T16:56:14;9.30;;;3.83;;
9398;SDS011;4739;49.334;8.792;2022-10-28T16:58:41;11.30;;;3.50;;
9398;SDS011;4739;49.334;8.792;2022-10-28T17:01:07;9.80;;;3.40;;
9398;SDS011;4739;49.334;8.792;2022-10-28T17:03:34;8.57;;;3.57;;
9398;SDS011;4739;49.334;8.792;2022-10-28T17:05:59;9.60;;;3.50;;
9398;SDS011;4739;49.334;8.792;2022-10-28T17:08:25;7.70;;;3.63;;
9398;SDS011;4739;49.334;8.792;2022-10-28T17:10:51;7.43;;;3.57;;
9398;SDS011;4739;49.334;8.792;2022-10-28T17:13:16;9.53;;;4.07;;
9398;SDS011;4739;49.334;8.792;2022-10-28T17:15:42;9.57;;;3.60;;
9398;SDS011;4739;49.334;8.792;2022-10-28T17:18:10;14.80;;;3.83;;
9398;SDS011;4739;49.334;8.792;2022-10-28T17:20:37;8.17;;;3.40;;
9398;SDS011;4739;49.334;8.792;2022-10-28T17:23:03;10.10;;;3.60;;
9398;SDS011;4739;49.334;8.792;2022-10-28T17:25:29;9.10;;;4.03;;
9398;SDS011;4739;49.334;8.792;2022-10-28T17:27:55;9.50;;;3.23;;
9398;SDS011;4739;49.334;8.792;2022-10-28T17:30:21;9.40;;;3.87;;
9398;SDS011;4739;49.334;8.792;2022-10-28T17:32:50;7.63;;;3.50;;
9398;SDS011;4739;49.334;8.792;2022-10-28T17:35:17;10.10;;;4.03;;
9398;SDS011;4739;49.334;8.792;2022-10-28T17:37:45;11.40;;;4.60;;
9398;SDS011;4739;49.334;8.792;2022-10-28T17:40:10;9.87;;;5.60;;
9398;SDS011;4739;49.334;8.792;2022-10-28T17:42:36;9.27;;;3.77;;
9398;SDS011;4739;49.334;8.792;2022-10-28T17:45:02;9.17;;;3.73;;
9398;SDS011;4739;49.334;8.792;2022-10-28T17:47:29;10.00;;;4.20;;
9398;SDS011;4739;49.334;8.792;2022-10-28T17:49:57;6.13;;;3.37;;
9398;SDS011;4739;49.334;8.792;2022-10-28T17:52:23;12.17;;;3.97;;
9398;SDS011;4739;49.334;8.792;2022-10-28T17:54:49;10.43;;;3.70;;
9398;SDS011;4739;49.334;8.792;2022-10-28T17:57:15;7.10;;;3.30;;
9398;SDS011;4739;49.334;8.792;2022-10-28T17:59:41;10.73;;;3.60;;
9398;SDS011;4739;49.334;8.792;2022-10-28T18:02:08;8.67;;;3.03;;
9398;SDS011;4739;49.334;8.792;2022-10-28T18:04:37;6.27;;;3.40;;
9398;SDS011;4739;49.334;8.792;2022-10-28T18:07:02;7.87;;;3.60;;
9398;SDS011;4739;49.334;8.792;2022-10-28T18:09:28;10.03;;;4.20;;
9398;SDS011;4739;49.334;8.792;2022-10-28T18:11:55;7.97;;;6.07;;
9398;SDS011;4739;49.334;8.792;2022-10-28T18:14:21;6.80;;;3.50;;
9398;SDS011;4739;49.334;8.792;2022-10-28T18:16:47;6.20;;;4.10;;
9398;SDS011;4739;49.334;8.792;2022-10-28T18:19:14;9.73;;;3.87;;
9398;SDS011;4739;49.334;8.792;2022-10-28T18:21:40;11.80;;;7.20;;
9398;SDS011;4739;49.334;8.792;2022-10-28T18:24:06;10.37;;;4.50;;
9398;SDS011;4739;49.334;8.792;2022-10-28T18:26:33;9.47;;;4.40;;
9398;SDS011;4739;49.334;8.792;2022-10-28T18:29:00;6.97;;;3.20;;
9398;SDS011;4739;49.334;8.792;2022-10-28T18:31:28;5.43;;;3.40;;
9398;SDS011;4739;49.334;8.792;2022-10-28T18:33:55;9.87;;;4.10;;
9398;SDS011;4739;49.334;8.792;2022-10-28T18:36:22;8.10;;;3.47;;
9398;SDS011;4739;49.334;8.792;2022-10-28T18:41:19;6.40;;;3.80;;
9398;SDS011;4739;49.334;8.792;2022-10-28T18:43:50;10.03;;;4.40;;
9398;SDS011;4739;49.334;8.792;2022-10-28T18:46:20;8.70;;;3.53;;